createdAt,value
2022-11-07T00:01:22.306Z,83.8656518454528
2022-11-07T00:04:19.857Z,84.15927378337645
2022-11-07T00:07:19.385Z,84.02887057459897
2022-11-07T00:11:16.236Z,83.28548638313197
2022-11-07T00:14:18.173Z,84.43064630912899
2022-11-07T00:17:18.506Z,85.29201820484879
2022-11-07T00:21:16.758Z,85.68396074889374
2022-11-07T00:24:18.443Z,87.04488144558528
2022-11-07T00:27:17.295Z,87.20731452577553
2022-11-07T00:31:17.308Z,87.39876616882874
2022-11-07T00:34:16.995Z,87.5477709437133
2022-11-07T00:37:16.628Z,87.48452891242634
2022-11-07T00:41:16.834Z,87.41261879009906
2022-11-07T00:44:16.964Z,86.98312018306862
2022-11-07T00:47:16.624Z,86.47861542592557
2022-11-07T00:51:19.597Z,85.30846636990323
2022-11-07T00:54:16.417Z,84.91408421842273
2022-11-07T00:57:16.650Z,85.25295356106527
2022-11-07T01:01:17.912Z,84.31679023613273
2022-11-07T01:05:11.609Z,84.89472967762758
2022-11-07T01:07:16.383Z,85.77057182184979
2022-11-07T01:11:15.990Z,85.71941802800448
2022-11-07T01:14:20.191Z,86.6366497176385
2022-11-07T01:17:16.357Z,87.01275898821359
2022-11-07T01:21:17.685Z,86.89680602125642
2022-11-07T01:24:17.467Z,86.93505671859864
2022-11-07T01:27:15.826Z,87.3659296909082
2022-11-07T01:31:18.716Z,87.2202214394748
2022-11-07T01:34:19.393Z,87.8577034892833
2022-11-07T01:37:19.356Z,87.56741346337346
2022-11-07T01:41:28.814Z,88.27605451664239
2022-11-07T01:45:20.378Z,89.45757966821644
2022-11-07T01:47:17.243Z,89.68773520792958
2022-11-07T01:51:17.705Z,89.97685393762458
2022-11-07T01:54:21.154Z,90.92251038850138
2022-11-07T01:57:21.965Z,91.29601174627426
2022-11-07T02:01:17.500Z,91.76914267975609
2022-11-07T02:04:19.456Z,92.37106905078997
2022-11-07T02:07:19.628Z,92.23958997994167
2022-11-07T02:11:17.253Z,91.15079498207245
2022-11-07T02:14:18.582Z,91.64600682742204
2022-11-07T02:17:17.702Z,91.81422482122852
2022-11-07T02:21:26.637Z,91.66680680913335
2022-11-07T02:24:26.163Z,91.74517978215917
2022-11-07T02:27:20.250Z,91.06905105945663
2022-11-07T02:31:16.750Z,91.11724305238985
2022-11-07T02:34:16.470Z,91.35129834561424
2022-11-07T02:37:23.135Z,90.54828001755709
2022-11-07T02:41:18.976Z,89.92135437539223
2022-11-07T02:44:17.712Z,89.67906402959271
2022-11-07T02:47:16.462Z,89.6681147277047
2022-11-07T02:51:16.302Z,89.28030706087213
2022-11-07T02:54:16.531Z,90.24527179481548
2022-11-07T02:57:16.880Z,89.95367326785097
2022-11-07T03:01:19.013Z,89.63449699926005
2022-11-07T03:04:18.503Z,89.83135683101828
2022-11-07T03:07:18.941Z,89.84176259340406
2022-11-07T03:11:20.344Z,90.13780846991207
2022-11-07T03:14:17.943Z,90.69375691219122
2022-11-07T03:17:16.967Z,91.54784700930686
2022-11-07T03:21:16.713Z,91.02397899243246
2022-11-07T03:24:16.625Z,91.65852792986168
2022-11-07T03:27:17.054Z,91.41803264659902
2022-11-07T03:31:15.994Z,91.76369937029646
2022-11-07T03:34:16.589Z,92.31859811074935
2022-11-07T03:37:16.458Z,92.52103722633903
2022-11-07T03:41:17.549Z,92.43083425881056
2022-11-07T03:44:17.264Z,92.43692347628621
2022-11-07T03:47:17.181Z,92.66830815587291
2022-11-07T03:51:16.905Z,91.30212263971454
2022-11-07T03:54:17.051Z,91.57683240535334
2022-11-07T03:57:16.950Z,91.70260127127281
2022-11-07T04:01:16.426Z,91.11971456402695
2022-11-07T04:04:16.649Z,90.85401987166442
2022-11-07T04:07:17.311Z,90.72412768078019
2022-11-07T04:17:19.473Z,90.20918103704662
2022-11-07T04:21:16.024Z,92.17140365572891
2022-11-07T04:24:16.376Z,92.8987244638162
2022-11-07T04:28:04.717Z,93.58864770465203
2022-11-07T04:31:16.801Z,94.09662647346052
2022-11-07T04:34:16.923Z,94.53148256409088
2022-11-07T04:37:17.636Z,95.11923201829187
2022-11-07T04:41:19.713Z,95.16487517428837
2022-11-07T04:44:16.946Z,95.43492433961295
2022-11-07T04:47:17.060Z,95.8562003442412
2022-11-07T04:51:21.039Z,94.54115953437449
2022-11-07T04:54:16.832Z,95.32622289649751
2022-11-07T04:57:16.553Z,95.27389879248467
2022-11-07T05:01:16.515Z,94.26800070643577
2022-11-07T05:04:17.066Z,94.28511863247797
2022-11-07T05:07:19.093Z,94.55353996214627
2022-11-07T05:11:16.240Z,93.52863939265903
2022-11-07T05:14:16.135Z,92.84500194525344
2022-11-07T05:17:16.619Z,92.63955452493656
2022-11-07T05:21:17.009Z,92.94151115174701
2022-11-07T05:24:16.575Z,92.98660508458936
2022-11-07T05:27:17.777Z,91.80661896757157
2022-11-07T05:31:17.213Z,92.8998600165929
2022-11-07T05:34:17.532Z,93.13198881687194
2022-11-07T05:37:17.029Z,93.03413826502013
2022-11-07T05:41:17.714Z,92.51864255332119
2022-11-07T05:44:16.890Z,92.881441828847
2022-11-07T05:47:16.030Z,93.10915700338282
2022-11-07T05:51:16.766Z,92.6490080087313
2022-11-07T05:54:17.193Z,92.63116361823977
2022-11-07T05:57:17.030Z,93.10749692737174
2022-11-07T06:01:21.791Z,93.75540064627803
2022-11-07T06:04:16.691Z,94.14986642281345
2022-11-07T06:07:16.630Z,94.21976180750309
2022-11-07T06:11:16.228Z,94.59314542202236
2022-11-07T06:14:16.508Z,94.67774314281402
2022-11-07T06:17:16.478Z,93.8784995652078
2022-11-07T06:21:17.425Z,93.91414717009616
2022-11-07T06:24:16.476Z,94.42895045911662
2022-11-07T06:27:16.747Z,95.49910758600608
2022-11-07T06:31:16.365Z,95.88626064726643
2022-11-07T06:34:16.866Z,96.10274725068291
2022-11-07T06:37:16.641Z,96.99133515277299
2022-11-07T06:41:16.453Z,96.80272379289963
2022-11-07T06:44:17.546Z,97.48328265570795
2022-11-07T06:47:16.752Z,98.5667129281017
2022-11-07T06:51:16.697Z,98.5486546572243
2022-11-07T06:54:16.901Z,99.5532834218397
2022-11-07T06:57:16.825Z,99.31378223965807
2022-11-07T07:01:16.645Z,98.64171618490573
2022-11-07T07:04:16.808Z,98.92704120968949
2022-11-07T07:07:16.965Z,99.32198305211703
2022-11-07T07:11:16.618Z,98.71475315942278
2022-11-07T07:14:16.484Z,98.85638450163935
2022-11-07T07:17:17.045Z,99.33572939350559
2022-11-07T07:21:27.993Z,99.34797507807536
2022-11-07T07:24:19.635Z,100
2022-11-07T07:27:20.606Z,100
2022-11-07T07:31:24.679Z,100
2022-11-07T07:34:16.337Z,100
2022-11-07T07:37:17.258Z,100
2022-11-07T07:41:17.257Z,100
2022-11-07T07:44:17.596Z,100
2022-11-07T07:47:17.743Z,100
2022-11-07T07:51:16.005Z,100
2022-11-07T07:54:16.187Z,100
2022-11-07T07:57:16.425Z,100
2022-11-07T08:01:15.923Z,100
2022-11-07T08:04:15.962Z,100
2022-11-07T08:07:16.150Z,100
2022-11-07T08:11:15.887Z,100
2022-11-07T08:14:16.338Z,100
2022-11-07T08:17:17.313Z,100
2022-11-07T08:21:17.121Z,100
2022-11-07T08:24:24.042Z,100
2022-11-07T08:27:17.107Z,100
2022-11-07T08:31:16.975Z,100
2022-11-07T08:34:17.937Z,99.324621572797
2022-11-07T08:37:17.440Z,99.86745214403913
2022-11-07T08:41:21.783Z,98.84849983489963
2022-11-07T08:44:16.651Z,95.67616170041507
2022-11-07T08:47:16.819Z,94.56703729342334
2022-11-07T08:51:16.599Z,93.57489405593687
2022-11-07T08:54:17.016Z,93.9728942099341
2022-11-07T08:57:17.513Z,93.93263582829577
2022-11-07T09:01:16.971Z,94.25757328540959
2022-11-07T09:04:17.285Z,94.00695180510104
2022-11-07T09:07:17.107Z,93.20947018954735
2022-11-07T09:11:19.322Z,93.65792430276284
2022-11-07T09:14:16.466Z,94.37231908084162
2022-11-07T09:17:19.166Z,92.86504990989101
2022-11-07T09:21:20.922Z,93.8059263510637
2022-11-07T09:24:16.629Z,95.79340621182625
2022-11-07T09:27:16.855Z,95.26114340352726
2022-11-07T09:31:15.978Z,94.54770000136763
2022-11-07T09:34:16.363Z,93.82155025128621
2022-11-07T09:37:17.479Z,91.62666928023532
2022-11-07T09:41:28.270Z,90.3484574651859
2022-11-07T09:44:36.612Z,89.90471698900443
2022-11-07T09:47:22.467Z,87.20910457882846
2022-11-07T09:51:24.880Z,85.78398365827081
2022-11-07T09:54:21.516Z,83.89929173642057
2022-11-07T09:57:19.325Z,82.88504872878107
2022-11-07T10:01:19.089Z,84.92929855020492
2022-11-07T10:04:32.227Z,80.69599650818569
2022-11-07T10:07:30.357Z,78.65240174597865
2022-11-07T10:11:28.923Z,76.26574005560734
2022-11-07T10:14:28.356Z,76.45839622475322
2022-11-07T10:17:27.077Z,73.51986239732771
2022-11-07T10:21:37.480Z,72.5712351244316
2022-11-07T10:24:29.650Z,73.54663327890665
2022-11-07T10:27:17.109Z,73.033548025231
2022-11-07T10:31:16.587Z,67.81400971269899
2022-11-07T10:34:25.384Z,66.43232374693567
2022-11-07T10:37:16.757Z,67.62945331563452
2022-11-07T10:41:19.507Z,65.99486389923548
2022-11-07T10:44:44.138Z,64.15663680703378
2022-11-07T10:47:20.870Z,63.51682610040199
2022-11-07T10:51:16.583Z,60.74224531574253
2022-11-07T10:54:26.982Z,59.80445730940866
2022-11-07T10:57:19.407Z,58.599773705019196
2022-11-07T11:01:23.890Z,57.55988774795919
2022-11-07T11:04:20.588Z,58.1730416774894
2022-11-07T11:07:17.908Z,57.18207846373115
2022-11-07T11:11:26.181Z,55.64461142470441
2022-11-07T11:14:20.536Z,54.987674703242874
2022-11-07T11:17:24.726Z,53.79165587183021
2022-11-07T11:21:17.631Z,53.23567268946913
2022-11-07T11:24:39.000Z,53.31179643405196
2022-11-07T11:27:20.963Z,51.49751346572198
2022-11-07T11:31:24.517Z,49.31590357737917
2022-11-07T11:34:22.999Z,51.98333448859252
2022-11-07T11:37:20.079Z,51.606941098871836
2022-11-07T11:41:22.248Z,51.21502120224516
2022-11-07T11:44:22.319Z,48.7573957088591
2022-11-07T11:47:24.163Z,47.75564952194654
2022-11-07T11:51:23.803Z,47.98175789966342
2022-11-07T11:54:16.638Z,49.44648005721668
2022-11-07T11:57:22.349Z,47.6803330488671
2022-11-07T12:01:30.656Z,47.25678036247934
2022-11-07T12:04:41.856Z,46.40995055292079
2022-11-07T12:07:35.573Z,45.545869158381095
2022-11-07T12:11:22.322Z,44.883097466790225
2022-11-07T12:21:29.276Z,41.255912964706354
2022-11-07T12:24:52.816Z,40.90907494611847
2022-11-07T12:27:28.860Z,42.031490739371684
2022-11-07T12:31:29.251Z,41.20416024719588
2022-11-07T12:34:31.091Z,41.58615981905821
2022-11-07T12:37:37.608Z,41.169694049755435
2022-11-07T12:41:29.657Z,42.061286629641096
2022-11-07T12:44:31.078Z,42.20587477807712
2022-11-07T12:47:36.309Z,41.48849294883684
2022-11-07T12:51:28.011Z,41.54644753348496
2022-11-07T12:54:35.434Z,41.27438110289902
2022-11-07T12:57:20.332Z,41.43665350002949
2022-11-07T13:01:23.361Z,40.255156454070566
2022-11-07T13:04:21.389Z,40.67802320555716
2022-11-07T13:07:22.881Z,39.40933286165369
2022-11-07T13:11:22.678Z,39.09647792556888
2022-11-07T13:14:25.739Z,40.83442661889343
2022-11-07T13:17:18.532Z,40.782279218988656
2022-11-07T13:21:16.626Z,40.660651733078026
2022-11-07T13:24:21.127Z,39.11927124269333
2022-11-07T13:27:48.768Z,40.197131829796035
2022-11-07T13:31:35.915Z,39.20612027250901
2022-11-07T13:34:26.236Z,39.11882223678156
2022-11-07T13:37:20.684Z,39.872284896496275
2022-11-07T13:41:18.212Z,38.092516967112694
2022-11-07T13:44:22.606Z,38.956419142044524
2022-11-07T13:47:24.514Z,38.5970860863701
2022-11-07T13:51:20.521Z,39.07837711854245
2022-11-07T13:54:21.488Z,39.402947951898824
2022-11-07T13:57:22.585Z,40.29555709235699
2022-11-07T14:01:17.155Z,39.559641045209275
2022-11-07T14:04:20.672Z,40.469446026406885
2022-11-07T14:07:19.427Z,39.47267799978765
2022-11-07T14:11:19.514Z,40.01162850384445
2022-11-07T14:14:17.876Z,40.7185906863972
2022-11-07T14:17:19.365Z,39.77405418855886
2022-11-07T14:21:20.076Z,40.266636093602166
2022-11-07T14:24:21.956Z,39.524987206865546
2022-11-07T14:27:17.382Z,39.35120384343126
2022-11-07T14:31:19.301Z,40.27249622392395
2022-11-07T14:34:18.954Z,39.664054627799864
2022-11-07T14:37:18.984Z,38.841615272930696
2022-11-07T14:41:18.871Z,38.147162785138
2022-11-07T14:44:19.563Z,38.008573566870886
2022-11-07T14:47:20.516Z,39.242072037570765
2022-11-07T14:51:22.586Z,38.993534392968265
2022-11-07T14:54:19.227Z,39.879210830377446
2022-11-07T14:57:17.726Z,40.162848374122795
2022-11-07T15:01:27.385Z,40.11666980028589
2022-11-07T15:04:27.110Z,39.81025414102741
2022-11-07T15:07:22.235Z,40.19193517199468
2022-11-07T15:11:26.696Z,40.480916751280795
2022-11-07T15:14:23.513Z,41.098923952163844
2022-11-07T15:17:22.593Z,41.27195026030883
2022-11-07T15:21:27.730Z,41.53141493732608
2022-11-07T15:24:31.654Z,42.142660299274574
2022-11-07T15:27:20.683Z,42.706855699907415
2022-11-07T15:31:21.843Z,43.0634177125997
2022-11-07T15:34:28.845Z,42.848922467260444
2022-11-07T15:37:21.309Z,43.239545416047605
2022-11-07T15:41:15.990Z,43.716189936184065
2022-11-07T15:44:17.358Z,44.43935895657827
2022-11-07T15:47:18.518Z,46.096913339154845
2022-11-07T15:51:16.821Z,46.45880142011972
2022-11-07T15:54:19.507Z,45.84723556719661
2022-11-07T15:57:18.054Z,45.89638393735146
2022-11-07T16:01:16.894Z,46.54117644957309
2022-11-07T16:04:16.989Z,46.366857246426044
2022-11-07T16:07:19.239Z,46.97861816961215
2022-11-07T16:11:17.000Z,46.93082173093289
2022-11-07T16:14:42.867Z,47.31888961835351
2022-11-07T16:17:18.576Z,47.7623218521895
2022-11-07T16:21:16.289Z,48.34888539492117
2022-11-07T16:24:17.028Z,48.53445212407819
2022-11-07T16:27:17.636Z,49.107621081071244
2022-11-07T16:31:16.889Z,49.481322676080474
2022-11-07T16:34:17.832Z,49.4784936630607
2022-11-07T16:37:16.963Z,50.06116189286904
2022-11-07T16:41:17.524Z,50.53111990281909
2022-11-07T16:44:21.572Z,51.401489843174595
2022-11-07T16:47:17.746Z,51.81993737289654
2022-11-07T16:51:19.640Z,51.91357424155087
2022-11-07T16:54:16.644Z,52.653069382047335
2022-11-07T16:57:17.774Z,53.11608646721867
2022-11-07T17:01:16.694Z,52.95739518463565
2022-11-07T17:04:16.634Z,53.06781131771559
2022-11-07T17:07:17.962Z,53.94632455216493
2022-11-07T17:11:17.333Z,54.31583244884333
2022-11-07T17:14:16.359Z,55.18810557764375
2022-11-07T17:17:18.943Z,55.40204570025921
2022-11-07T17:21:22.791Z,55.14653334399542
2022-11-07T17:24:17.216Z,55.46101032204651
2022-11-07T17:27:21.045Z,56.08528884758154
2022-11-07T17:31:16.544Z,56.64144976418885
2022-11-07T17:34:16.280Z,57.2472408741586
2022-11-07T17:37:18.542Z,57.596182478487286
2022-11-07T17:41:18.127Z,58.0559628808349
2022-11-07T17:44:17.808Z,58.783031957312296
2022-11-07T17:47:27.507Z,59.2692888042353
2022-11-07T17:51:16.227Z,59.32409448116667
2022-11-07T17:54:16.771Z,59.65909803752652
2022-11-07T17:57:16.856Z,60.48683165880609
2022-11-07T18:01:19.774Z,60.329568119309876
2022-11-07T18:04:18.256Z,60.45032385859718
2022-11-07T18:07:19.371Z,61.38306508425087
2022-11-07T18:11:16.757Z,61.118202267917226
2022-11-07T18:14:16.354Z,61.73166002017998
2022-11-07T18:17:16.722Z,62.04263540097636
2022-11-07T18:21:17.122Z,62.258097902740325
2022-11-07T18:24:18.049Z,62.49137198215778
2022-11-07T18:27:16.683Z,62.25254310563302
2022-11-07T18:31:20.322Z,62.28854054322571
2022-11-07T18:34:17.011Z,62.92122239863409
2022-11-07T18:37:18.751Z,63.1882582181365
2022-11-07T18:41:20.603Z,63.311164402334875
2022-11-07T18:44:17.252Z,63.92689575237301
2022-11-07T18:47:16.337Z,64.30292538863513
2022-11-07T18:51:19.752Z,64.00796077392333
2022-11-07T18:54:16.992Z,64.33942318012521
2022-11-07T18:57:17.918Z,64.9013826655699
2022-11-07T19:01:19.187Z,65.17394918018377
2022-11-07T19:04:18.551Z,65.95645663685876
2022-11-07T19:07:16.913Z,66.17301078632045
2022-11-07T19:11:18.586Z,65.52882488343617
2022-11-07T19:14:16.363Z,66.02223920784081
2022-11-07T19:17:16.234Z,66.3823071912262
2022-11-07T19:21:19.764Z,66.56968324230822
2022-11-07T19:24:16.769Z,67.7522295120679
2022-11-07T19:27:16.921Z,67.88937593546079
2022-11-07T19:31:17.028Z,67.75437783206296
2022-11-07T19:34:18.263Z,68.47041233596646
2022-11-07T19:37:16.409Z,68.63163685681559
2022-11-07T19:41:17.990Z,68.80075645943779
2022-11-07T19:44:17.628Z,69.7988571622736
2022-11-07T19:47:19.403Z,69.55126783342682
2022-11-07T19:51:22.185Z,69.49601122739962
2022-11-07T19:54:17.007Z,70.18060603582461
2022-11-07T19:57:18.797Z,70.58535060535576
2022-11-07T20:01:17.641Z,70.12062606793707
2022-11-07T20:04:16.684Z,70.62679506618231
2022-11-07T20:07:17.062Z,71.10337579038377
2022-11-07T20:11:19.242Z,70.87665469228965
2022-11-07T20:14:16.495Z,71.674308838493
2022-11-07T20:17:16.432Z,71.75726250193556
2022-11-07T20:21:18.929Z,72.26513152322032
2022-11-07T20:24:16.729Z,73.18822024723806
2022-11-07T20:27:16.759Z,72.87692724700356
2022-11-07T20:31:20.130Z,72.711722360298
2022-11-07T20:34:18.741Z,73.49636153811011
2022-11-07T20:37:21.406Z,73.70401241953165
2022-11-07T20:41:16.033Z,73.39883025689589
2022-11-07T20:44:16.570Z,73.86156522159793
2022-11-07T20:47:16.691Z,73.97094401276617
2022-11-07T20:51:19.192Z,74.13841521060696
2022-11-07T20:54:16.386Z,74.35687311687646
2022-11-07T20:57:16.853Z,74.73159200923513
2022-11-07T21:01:19.089Z,74.17736983385365
2022-11-07T21:04:17.641Z,74.43433534393182
2022-11-07T21:07:21.100Z,74.49271601575943
2022-11-07T21:11:16.901Z,74.42071553637511
2022-11-07T21:14:16.919Z,75.04217972857475
2022-11-07T21:17:17.149Z,75.23852576704176
2022-11-07T21:21:20.449Z,74.97424141685528
2022-11-07T21:24:16.534Z,75.43042623357545
2022-11-07T21:27:16.576Z,75.1218868139911
2022-11-07T21:31:19.155Z,75.1844961274701
2022-11-07T21:34:17.493Z,75.0390739636706
2022-11-07T21:37:16.999Z,75.06767338235076
2022-11-07T21:41:17.029Z,75.10997187174323
2022-11-07T21:44:16.476Z,75.38336776786593
2022-11-07T21:47:16.978Z,76.07798498827724
2022-11-07T21:51:18.133Z,75.41228413439298
2022-11-07T21:54:17.174Z,75.78453566987676
2022-11-07T21:57:17.075Z,76.14826082906703
2022-11-07T22:01:16.637Z,76.18242678049802
2022-11-07T22:04:16.483Z,76.0793723650066
2022-11-07T22:07:16.177Z,76.28871324132648
2022-11-07T22:11:16.843Z,76.11136453149507
2022-11-07T22:14:18.851Z,76.42558163739461
2022-11-07T22:17:16.567Z,76.34720379863336
2022-11-07T22:21:18.049Z,76.18326922668278
2022-11-07T22:24:16.769Z,76.1139705981619
2022-11-07T22:27:16.893Z,76.47660348613033
2022-11-07T22:31:18.775Z,75.795473835816
2022-11-07T22:34:16.615Z,75.61238839081639
2022-11-07T22:37:16.508Z,75.92517600747786
2022-11-07T22:41:18.263Z,76.04015250637806
2022-11-07T22:44:16.507Z,77.08612415406853
2022-11-07T22:47:16.567Z,77.20881121805029
2022-11-07T22:51:18.569Z,76.74853799146312
2022-11-07T22:54:17.049Z,77.46161031624078
2022-11-07T22:57:18.104Z,77.8399809129696
2022-11-07T23:01:19.672Z,77.71138798916616
2022-11-07T23:04:18.207Z,77.61906415011143
2022-11-07T23:07:17.128Z,78.0850192540546
2022-11-07T23:11:46.559Z,78.12143839249751
2022-11-07T23:14:18.946Z,78.58405460033534
2022-11-07T23:17:16.166Z,78.47299826851925
2022-11-07T23:21:16.573Z,78.25855543548022
2022-11-07T23:24:16.956Z,78.48653716929397
2022-11-07T23:27:17.778Z,78.546807495289
2022-11-07T23:31:17.346Z,77.97525744498374
2022-11-07T23:34:18.243Z,78.41914826312522
2022-11-07T23:37:18.034Z,78.65685061163701
2022-11-07T23:41:16.179Z,78.41848010028802
2022-11-07T23:44:16.354Z,78.49682791091264
2022-11-07T23:51:16.511Z,78.29123051430618
